Currently 40°F in Anza, California, USA
40°F
45°F / 38°F
3 mph S
0.00"
Wednesday, February 8, 2023 5:43 AM PST

Anza, California Weather Summary
Last 36 Hours

Temperature Winds Hourly Humidity Dewpoint
Time Report Norm Report Norm Max Gusts Precip. Rpt. Norm Rpt. Norm Pressure
1Wed 05:43 AM  40.5°F  42°F  3 mph S  3 mph  none  0.00"  52%  68%  23°F  32°F  29.89"
Wed 05:00 AM  43.0°F  42°F  2 mph S  3 mph  7 mph  0.00"  46%  69%  23°F  32°F  29.87"
Wed 04:00 AM  43.7°F  42°F  1 mph E  3 mph  11 mph  0.00"  46%  70%  23°F  32°F  29.86"
2Wed 03:34 AM  45.2°F  42°F  3 mph SW  3 mph  8 mph  ----  43%  70%  23°F  32°F  29.86"
Wed 03:00 AM  42.9°F  42°F  2 mph SE  3 mph  8 mph  0.00"  46%  70%  23°F  32°F  29.87"
3Wed 02:29 AM  38.1°F  42°F  4 mph SW  3 mph  5 mph  ----  54%  70%  22°F  33°F  29.88"
Wed 02:00 AM  40.8°F  42°F  calm  4 mph  10 mph  0.00"  48%  70%  22°F  33°F  29.88"
Wed 01:00 AM  42.2°F  42°F  4 mph S  3 mph  9 mph  0.00"  46%  70%  22°F  33°F  29.89"
Wed 12:00 AM  42.4°F  43°F  5 mph S  3 mph  5 mph  0.00"  44%  71%  21°F  33°F  29.89"
Tue 11:00 PM  38.2°F  43°F  calm  3 mph  7 mph  0.00"  54%  70%  22°F  33°F  29.89"
Tue 10:00 PM  35.9°F  43°F  calm  3 mph  3 mph  0.00"  57%  70%  22°F  34°F  29.89"
Tue 09:00 PM  38.5°F  44°F  calm  3 mph  6 mph  0.00"  53%  69%  22°F  34°F  29.88"
Tue 08:00 PM  39.6°F  45°F  calm  3 mph  8 mph  0.00"  50%  68%  22°F  34°F  29.87"
Tue 07:00 PM  38.8°F  46°F  calm  3 mph  5 mph  0.00"  53%  66%  22°F  35°F  29.86"
Tue 06:00 PM  43.8°F  49°F  calm  3 mph  10 mph  0.00"  45%  61%  23°F  35°F  29.87"
Tue 05:00 PM  51.1°F  54°F  4 mph S  5 mph  12 mph  0.00"  34%  53%  22°F  36°F  29.85"
Tue 04:00 PM  53.6°F  57°F  8 mph S  7 mph  20 mph  0.00"  32%  48%  23°F  37°F  29.86"
Tue 03:00 PM  55.0°F  59°F  8 mph SE  8 mph  21 mph  0.00"  25%  44%  18°F  36°F  29.86"
Tue 02:00 PM  55.2°F  59°F  7 mph E  8 mph  22 mph  0.00"  27%  44%  20°F  36°F  29.86"
Tue 01:00 PM  54.1°F  59°F  12 mph E  8 mph  23 mph  0.00"  27%  44%  20°F  36°F  29.88"
Tue 12:00 PM  51.7°F  58°F  13 mph E  9 mph  24 mph  0.00"  30%  44%  19°F  35°F  29.90"
Tue 11:00 AM  52.5°F  57°F  10 mph E  8 mph  24 mph  0.00"  30%  45%  21°F  35°F  29.92"
Tue 10:00 AM  49.7°F  55°F  12 mph E  7 mph  20 mph  0.00"  37%  48%  23°F  35°F  29.93"
Tue 09:00 AM  47.5°F  53°F  7 mph E  6 mph  21 mph  0.00"  41%  54%  24°F  36°F  29.93"
Tue 08:00 AM  43.8°F  48°F  12 mph NE  4 mph  23 mph  0.00"  46%  64%  23°F  35°F  29.91"
Tue 07:00 AM  39.6°F  41°F  5 mph NE  3 mph  14 mph  0.00"  53%  70%  23°F  32°F  29.91"
Tue 06:00 AM  40.8°F  41°F  3 mph NE  3 mph  15 mph  0.00"  50%  69%  23°F  32°F  29.89"
Tue 05:00 AM  41.8°F  42°F  8 mph E  3 mph  23 mph  0.00"  48%  69%  23°F  32°F  29.86"
Tue 04:00 AM  42.5°F  41°F  10 mph NE  3 mph  19 mph  0.00"  46%  70%  22°F  32°F  29.85"
Tue 03:00 AM  43.3°F  42°F  8 mph NE  3 mph  23 mph  0.00"  46%  70%  23°F  32°F  29.88"
Tue 02:00 AM  44.6°F  42°F  13 mph NE  4 mph  17 mph  0.00"  43%  71%  23°F  32°F  29.86"
Tue 01:00 AM  45.2°F  42°F  7 mph E  3 mph  21 mph  0.00"  42%  70%  22°F  33°F  29.86"
Tue 12:00 AM  44.3°F  42°F  4 mph SW  3 mph  17 mph  0.00"  43%  71%  22°F  33°F  29.85"
Mon 11:00 PM  45.9°F  43°F  9 mph NW  3 mph  19 mph  0.00"  40%  70%  22°F  33°F  29.84"
Mon 10:00 PM  44.9°F  43°F  4 mph NE  3 mph  13 mph  0.00"  41%  70%  21°F  34°F  29.83"
Mon 09:00 PM  43.1°F  44°F  1 mph W  3 mph  11 mph  0.00"  42%  69%  20°F  34°F  29.81"
Mon 08:00 PM  43.3°F  45°F  calm  3 mph  12 mph  0.00"  41%  67%  20°F  34°F  29.81"
Mon 07:00 PM  46.4°F  46°F  calm  3 mph  14 mph  0.00"  35%  66%  19°F  35°F  29.82"
Mon 06:00 PM  46.2°F  49°F  8 mph NE  3 mph  15 mph  0.00"  35%  61%  19°F  35°F  29.80"

  1. Current weather data. No green row appears if the current weather data is also the high or low for the current day.
  2. High temperature for the current day.
  3. Low temperature for the current day.

The Anza, California weather pages are a service of WeatherCurrents. The Anza Valley is southwestern Riverside County, east of Temecula and Aguanga, south of Mount San Jacinto and west of Mount Santa Rosa.
Copyright ©2023  WeatherCurrents. All rights reserved. - Submit questions and comments - Privacy Policy

This page automatically refreshes every 10 minutes.